Time;durP1;ratioP1;P1;durP2;ratioP2;P2;SDS_P1;SDS_P2;PMS_P1;PMS_P2;Temp;Humidity;BMP_temperature;BMP_pressure;BME280_temperature;BME280_humidity;BME280_pressure;Samples;Min_cycle;Max_cycle;Signal;HPM_P1;HPM_P2
2023/10/28 00:00:07;;;;;;;;;;;;;;;;;;6286701;28;19957;-84
2023/10/28 00:03:07;;;;;;;;;;;;;;;;;;6279069;28;19912;-85
2023/10/28 00:06:07;;;;;;;;;;;;;;;;;;6291745;28;20403;-85
2023/10/28 00:09:07;;;;;;;;;;;;;;;;;;6288120;28;20015;-85
2023/10/28 00:12:12;;;;;;;;;;;;;;;;;;6288364;28;19963;-85
2023/10/28 00:15:13;;;;;;;;;;;;;;;;;;6279976;28;19913;-85
2023/10/28 00:18:14;;;;;;;;;;;;;;;;;;6304450;28;19912;-86
2023/10/28 00:21:17;;;;;;;;;;;;;;;;;;6284147;28;20007;-85
2023/10/28 00:24:17;;;;;;;;;;;;;;;;;;6298740;28;19913;-85
2023/10/28 00:27:18;;;;;;;;;;;;;;;;;;6283150;28;19913;-87
2023/10/28 00:30:18;;;;;;;;;;;;;;;;;;6286431;28;19924;-86
2023/10/28 00:33:18;;;;;;;;;;;;;;;;;;6284664;28;19916;-86
2023/10/28 00:36:18;;;;;;;;;;;;;;;;;;6291606;28;19917;-86
2023/10/28 00:39:18;;;;;;;;;;;;;;;;;;6288119;28;20007;-86
2023/10/28 00:42:18;;;;;;;;;;;;;;;;;;6287693;28;19920;-85
2023/10/28 00:45:19;;;;;;;;;;;;;;;;;;6283405;28;19916;-87
2023/10/28 00:48:19;;;;;;;;;;;;;;;;;;6284032;28;19908;-88
2023/10/28 00:51:19;;;;;;;;;;;;;;;;;;6296722;28;19948;-89
2023/10/28 00:54:19;;;;;;;;;;;;;;;;;;6276004;28;19935;-86
2023/10/28 00:57:19;;;;;;;;;;;;;;;;;;6279575;28;19931;-87
2023/10/28 01:00:20;;;;;;;;;;;;;;;;;;6297781;28;19913;-87
2023/10/28 01:03:20;;;;;;;;;;;;;;;;;;6291606;28;19944;-86
2023/10/28 01:06:20;;;;;;;;;;;;;;;;;;6283444;28;20392;-86
2023/10/28 01:09:21;;;;;;;;;;;;;;;;;;6281151;28;19920;-85
2023/10/28 01:12:23;;;;;;;;;;;;;;;;;;6295856;28;19913;-86
2023/10/28 01:15:23;;;;;;;;;;;;;;;;;;6297720;28;19956;-86
2023/10/28 01:18:23;;;;;;;;;;;;;;;;;;6279846;28;20350;-87
2023/10/28 01:21:23;;;;;;;;;;;;;;;;;;6294011;28;20514;-85
2023/10/28 01:24:24;;;;;;;;;;;;;;;;;;6289368;28;19913;-85
2023/10/28 01:27:24;;;;;;;;;;;;;;;;;;6286834;28;19931;-87
2023/10/28 01:30:24;;;;;;;;;;;;;;;;;;6287985;28;19913;-86
2023/10/28 01:33:24;;;;;;;;;;;;;;;;;;6289324;28;20026;-86
2023/10/28 01:36:24;;;;;;;;;;;;;;;;;;6273163;28;20018;-86
2023/10/28 01:39:24;;;;;;;;;;;;;;;;;;6292050;28;19993;-86
2023/10/28 01:42:24;;;;;;;;;;;;;;;;;;6294690;28;20004;-85
2023/10/28 01:45:24;;;;;;;;;;;;;;;;;;6283040;28;19913;-86
2023/10/28 01:48:24;;;;;;;;;;;;;;;;;;6275502;28;20290;-86
2023/10/28 01:51:25;;;;;;;;;;;;;;;;;;6279023;28;19912;-86
2023/10/28 01:54:25;;;;;;;;;;;;;;;;;;6276438;28;19913;-86
2023/10/28 01:57:25;;;;;;;;;;;;;;;;;;6289552;28;20403;-86
2023/10/28 02:00:30;;;;;;;;;;;;;;;;;;6281271;28;20051;-86
2023/10/28 02:03:30;;;;;;;;;;;;;;;;;;6280932;28;19912;-87
2023/10/28 02:06:30;;;;;;;;;;;;;;;;;;6286743;28;19963;-86
2023/10/28 02:09:34;;;;;;;;;;;;;;;;;;6281241;28;19912;-86
2023/10/28 02:12:37;;;;;;;;;;;;;;;;;;6290030;28;19935;-86
2023/10/28 02:15:37;;;;;;;;;;;;;;;;;;6296186;28;19916;-86
2023/10/28 02:18:37;;;;;;;;;;;;;;;;;;6294519;28;19909;-86
2023/10/28 02:21:37;;;;;;;;;;;;;;;;;;6289543;28;19915;-87
2023/10/28 02:24:37;;;;;;;;;;;;;;;;;;6301370;28;19909;-86
2023/10/28 02:27:37;;;;;;;;;;;;;;;;;;6290734;28;19916;-87
2023/10/28 02:30:38;;;;;;;;;;;;;;;;;;6297654;28;19909;-86
2023/10/28 02:33:39;;;;;;;;;;;;;;;;;;6298455;28;19963;-84
2023/10/28 02:36:39;;;;;;;;;;;;;;;;;;6308856;28;19920;-84
2023/10/28 02:39:39;;;;;;;;;;;;;;;;;;6302734;28;19912;-85
2023/10/28 02:42:39;;;;;;;;;;;;;;;;;;6319221;28;19901;-85
2023/10/28 02:45:39;;;;;;;;;;;;;;;;;;6322006;28;19913;-85
2023/10/28 02:48:39;;;;;;;;;;;;;;;;;;6297401;28;19965;-79
2023/10/28 02:51:39;;;;;;;;;;;;;;;;;;6285029;28;20343;-79
2023/10/28 02:54:40;;;;;;;;;;;;;;;;;;6279409;28;19917;-80
2023/10/28 02:57:40;;;;;;;;;;;;;;;;;;6280767;28;20338;-79
2023/10/28 03:00:40;;;;;;;;;;;;;;;;;;6284370;28;20349;-80
2023/10/28 03:03:41;;;;;;;;;;;;;;;;;;6272827;28;19916;-80
2023/10/28 03:06:41;;;;;;;;;;;;;;;;;;6276197;28;19923;-79
2023/10/28 03:09:41;;;;;;;;;;;;;;;;;;6283744;28;19958;-80
2023/10/28 03:12:41;;;;;;;;;;;;;;;;;;6291714;28;20386;-80
2023/10/28 03:15:44;;;;;;;;;;;;;;;;;;6295873;28;19919;-80
2023/10/28 03:18:44;;;;;;;;;;;;;;;;;;6274749;28;19913;-80
2023/10/28 03:21:44;;;;;;;;;;;;;;;;;;6280063;28;20595;-80
2023/10/28 03:24:44;;;;;;;;;;;;;;;;;;6272531;28;19917;-80
2023/10/28 03:27:45;;;;;;;;;;;;;;;;;;6280989;28;20362;-80
2023/10/28 03:30:46;;;;;;;;;;;;;;;;;;6294111;28;20397;-81
2023/10/28 03:33:46;;;;;;;;;;;;;;;;;;6275175;28;19912;-80
2023/10/28 03:36:46;;;;;;;;;;;;;;;;;;6278250;28;19944;-80
2023/10/28 03:39:46;;;;;;;;;;;;;;;;;;6279601;28;19912;-80
2023/10/28 03:42:46;;;;;;;;;;;;;;;;;;6286839;28;19909;-80
2023/10/28 03:45:48;;;;;;;;;;;;;;;;;;6273297;28;20371;-80
2023/10/28 03:48:48;;;;;;;;;;;;;;;;;;6280318;28;20397;-81
2023/10/28 03:51:48;;;;;;;;;;;;;;;;;;6284248;28;20451;-80
2023/10/28 03:54:48;;;;;;;;;;;;;;;;;;6293842;28;19975;-81
2023/10/28 03:57:48;;;;;;;;;;;;;;;;;;6284724;28;19920;-81
2023/10/28 04:00:48;;;;;;;;;;;;;;;;;;6289807;28;19917;-79
2023/10/28 04:03:49;;;;;;;;;;;;;;;;;;6282016;28;20447;-80
2023/10/28 04:06:49;;;;;;;;;;;;;;;;;;6273373;28;19909;-76
2023/10/28 04:09:49;;;;;;;;;;;;;;;;;;6280612;28;19967;-75
2023/10/28 04:12:50;;;;;;;;;;;;;;;;;;6293265;28;20438;-76
2023/10/28 04:15:50;;;;;;;;;;;;;;;;;;6290204;28;19922;-82
2023/10/28 04:18:50;;;;;;;;;;;;;;;;;;6288248;28;20002;-82
2023/10/28 04:21:51;;;;;;;;;;;;;;;;;;6294518;28;19995;-82
2023/10/28 04:24:51;;;;;;;;;;;;;;;;;;6293734;28;19912;-82
2023/10/28 04:27:51;;;;;;;;;;;;;;;;;;6271960;28;19919;-82
2023/10/28 04:30:51;;;;;;;;;;;;;;;;;;6272944;28;19913;-82
2023/10/28 04:33:52;;;;;;;;;;;;;;;;;;6284651;28;20309;-82
2023/10/28 04:36:53;;;;;;;;;;;;;;;;;;6276535;28;19917;-82
2023/10/28 04:39:53;;;;;;;;;;;;;;;;;;6285738;28;19912;-83
2023/10/28 04:42:53;;;;;;;;;;;;;;;;;;6275716;28;20054;-84
2023/10/28 04:45:53;;;;;;;;;;;;;;;;;;6290537;28;19949;-83
2023/10/28 04:48:53;;;;;;;;;;;;;;;;;;6280106;28;19921;-84
2023/10/28 04:51:54;;;;;;;;;;;;;;;;;;6282587;28;19913;-84
2023/10/28 04:54:54;;;;;;;;;;;;;;;;;;6278358;28;19948;-84
2023/10/28 04:57:54;;;;;;;;;;;;;;;;;;6270206;28;19960;-84
2023/10/28 05:00:55;;;;;;;;;;;;;;;;;;6286772;28;19924;-84
2023/10/28 05:03:55;;;;;;;;;;;;;;;;;;6283767;28;20374;-85
2023/10/28 05:06:55;;;;;;;;;;;;;;;;;;6306292;28;20356;-85
2023/10/28 05:09:55;;;;;;;;;;;;;;;;;;6281471;28;19919;-85
2023/10/28 05:12:55;;;;;;;;;;;;;;;;;;6292099;28;19919;-85
2023/10/28 05:15:55;;;;;;;;;;;;;;;;;;6272732;28;19928;-79
2023/10/28 05:18:56;;;;;;;;;;;;;;;;;;6292845;28;19919;-79
2023/10/28 05:21:56;;;;;;;;;;;;;;;;;;6290332;28;19916;-79
2023/10/28 05:24:56;;;;;;;;;;;;;;;;;;6274450;28;20000;-79
2023/10/28 05:27:56;;;;;;;;;;;;;;;;;;6279294;28;19909;-85
2023/10/28 05:30:56;;;;;;;;;;;;;;;;;;6280976;28;19920;-85
2023/10/28 05:33:56;;;;;;;;;;;;;;;;;;6287407;28;19916;-86
2023/10/28 05:36:57;;;;;;;;;;;;;;;;;;6297618;28;19956;-86
2023/10/28 05:39:57;;;;;;;;;;;;;;;;;;6299188;28;19912;-86
2023/10/28 05:42:59;;;;;;;;;;;;;;;;;;6280843;28;19972;-86
2023/10/28 05:45:59;;;;;;;;;;;;;;;;;;6292824;28;19983;-86
2023/10/28 05:49:00;;;;;;;;;;;;;;;;;;6298517;28;19924;-85
2023/10/28 05:52:00;;;;;;;;;;;;;;;;;;6296439;28;19913;-85
2023/10/28 05:55:00;;;;;;;;;;;;;;;;;;6286573;28;19924;-84
2023/10/28 05:58:01;;;;;;;;;;;;;;;;;;6290733;28;19927;-85
2023/10/28 06:01:02;;;;;;;;;;;;;;;;;;6328829;28;19912;-85
2023/10/28 06:04:02;;;;;;;;;;;;;;;;;;6297218;28;19908;-84
2023/10/28 06:07:02;;;;;;;;;;;;;;;;;;6324218;28;19920;-85
2023/10/28 06:10:04;;;;;;;;;;;;;;;;;;6312464;28;19980;-85
2023/10/28 06:13:04;;;;;;;;;;;;;;;;;;6295604;28;19915;-86
2023/10/28 06:16:05;;;;;;;;;;;;;;;;;;6321745;28;19971;-86
2023/10/28 06:19:05;;;;;;;;;;;;;;;;;;6302208;28;19912;-86
2023/10/28 06:22:05;;;;;;;;;;;;;;;;;;6302789;28;19924;-85
2023/10/28 06:25:05;;;;;;;;;;;;;;;;;;6301069;28;19920;-86
2023/10/28 06:28:05;;;;;;;;;;;;;;;;;;6310600;28;19920;-84
2023/10/28 06:31:05;;;;;;;;;;;;;;;;;;6314075;28;19912;-83
2023/10/28 06:34:06;;;;;;;;;;;;;;;;;;6290131;28;19998;-85
2023/10/28 06:37:06;;;;;;;;;;;;;;;;;;6302879;28;19921;-85
2023/10/28 06:40:06;;;;;;;;;;;;;;;;;;6305929;28;19939;-83
2023/10/28 06:43:06;;;;;;;;;;;;;;;;;;6284281;28;19921;-84
2023/10/28 06:46:06;;;;;;;;;;;;;;;;;;6285838;28;19979;-80
2023/10/28 06:49:08;;;;;;;;;;;;;;;;;;6280475;28;19924;-79
2023/10/28 06:52:09;;;;;;;;;;;;;;;;;;6274539;28;20003;-79
2023/10/28 06:55:12;;;;;;;;;;;;;;;;;;6280348;28;19963;-79
2023/10/28 06:58:12;;;;;;;;;;;;;;;;;;6285650;28;19927;-79
2023/10/28 07:01:12;;;;;;;;;;;;;;;;;;6296348;28;20285;-78
2023/10/28 07:04:12;;;;;;;;;;;;;;;;;;6276358;28;19913;-79
2023/10/28 07:07:14;;;;;;;;;;;;;;;;;;6288307;28;19913;-78
2023/10/28 07:10:14;;;;;;;;;;;;;;;;;;6293699;28;20378;-78
2023/10/28 07:13:14;;;;;;;;;;;;;;;;;;6278347;28;20019;-78
2023/10/28 07:16:17;;;;;;;;;;;;;;;;;;6288580;28;20424;-78
2023/10/28 07:19:18;;;;;;;;;;;;;;;;;;6289059;28;19916;-78
2023/10/28 07:22:20;;;;;;;;;;;;;;;;;;6300243;28;19966;-78
2023/10/28 07:25:20;;;;;;;;;;;;;;;;;;6285708;28;20382;-78
2023/10/28 07:28:20;;;;;;;;;;;;;;;;;;6281232;28;20383;-78
2023/10/28 07:31:20;;;;;;;;;;;;;;;;;;6288942;28;19969;-78
2023/10/28 07:34:20;;;;;;;;;;;;;;;;;;6275340;28;19909;-78
2023/10/28 07:37:20;;;;;;;;;;;;;;;;;;6279001;28;19913;-78
2023/10/28 07:40:20;;;;;;;;;;;;;;;;;;6289120;28;19976;-78
2023/10/28 07:43:21;;;;;;;;;;;;;;;;;;6287712;28;20414;-78
2023/10/28 07:46:21;;;;;;;;;;;;;;;;;;6291157;28;19912;-78
2023/10/28 07:49:21;;;;;;;;;;;;;;;;;;6290123;28;20338;-78
2023/10/28 07:52:21;;;;;;;;;;;;;;;;;;6293902;28;20018;-78
2023/10/28 07:55:22;;;;;;;;;;;;;;;;;;6285804;28;19948;-78
2023/10/28 07:58:22;;;;;;;;;;;;;;;;;;6286766;28;19924;-85
2023/10/28 08:01:22;;;;;;;;;;;;;;;;;;6297092;28;19967;-86
2023/10/28 08:04:22;;;;;;;;;;;;;;;;;;6289986;28;19989;-86
2023/10/28 08:07:22;;;;;;;;;;;;;;;;;;6295074;28;20325;-85
2023/10/28 08:10:22;;;;;;;;;;;;;;;;;;6291487;28;19918;-86
2023/10/28 08:13:22;;;;;;;;;;;;;;;;;;6289715;28;19919;-86
2023/10/28 08:16:23;;;;;;;;;;;;;;;;;;6290192;28;20286;-85
2023/10/28 08:19:24;;;;;;;;;;;;;;;;;;6290653;28;20000;-85
2023/10/28 08:22:24;;;;;;;;;;;;;;;;;;6316540;28;19912;-87
2023/10/28 08:25:25;;;;;;;;;;;;;;;;;;6317844;28;19931;-85
2023/10/28 08:28:25;;;;;;;;;;;;;;;;;;6312020;28;19917;-87
2023/10/28 08:31:27;;;;;;;;;;;;;;;;;;6316058;28;19913;-86
2023/10/28 08:34:27;;;;;;;;;;;;;;;;;;6308229;28;19947;-86
2023/10/28 08:37:27;;;;;;;;;;;;;;;;;;6302223;28;19947;-87
2023/10/28 08:40:28;;;;;;;;;;;;;;;;;;6297246;28;19900;-87
2023/10/28 08:43:28;;;;;;;;;;;;;;;;;;6296109;28;19916;-86
2023/10/28 08:46:29;;;;;;;;;;;;;;;;;;6290826;28;20406;-86
2023/10/28 08:49:29;;;;;;;;;;;;;;;;;;6285457;28;20294;-85
2023/10/28 08:52:29;;;;;;;;;;;;;;;;;;6286651;28;19944;-85
2023/10/28 08:55:30;;;;;;;;;;;;;;;;;;6294494;28;19947;-85
2023/10/28 08:58:30;;;;;;;;;;;;;;;;;;6291962;28;19959;-85
2023/10/28 09:01:31;;;;;;;;;;;;;;;;;;6290118;28;19919;-84
2023/10/28 09:04:31;;;;;;;;;;;;;;;;;;6287492;28;19913;-86
2023/10/28 09:07:31;;;;;;;;;;;;;;;;;;6284291;28;19963;-84
2023/10/28 09:10:32;;;;;;;;;;;;;;;;;;6286553;28;19924;-87
2023/10/28 09:13:34;;;;;;;;;;;;;;;;;;6284189;28;19919;-85
2023/10/28 09:16:34;;;;;;;;;;;;;;;;;;6271483;28;20339;-87
2023/10/28 09:19:34;;;;;;;;;;;;;;;;;;6286232;28;19920;-87
2023/10/28 09:22:35;;;;;;;;;;;;;;;;;;6285449;28;20436;-86
2023/10/28 09:25:35;;;;;;;;;;;;;;;;;;6275894;28;19913;-86
2023/10/28 09:28:36;;;;;;;;;;;;;;;;;;6279868;28;20446;-86
2023/10/28 09:31:37;;;;;;;;;;;;;;;;;;6287288;28;19909;-86
2023/10/28 09:34:38;;;;;;;;;;;;;;;;;;6275950;28;19920;-86
2023/10/28 09:37:38;;;;;;;;;;;;;;;;;;6269659;28;20481;-77
2023/10/28 09:40:39;;;;;;;;;;;;;;;;;;6288441;28;19916;-78
2023/10/28 09:43:40;;;;;;;;;;;;;;;;;;6281457;28;19916;-77
2023/10/28 09:46:40;;;;;;;;;;;;;;;;;;6270708;28;20295;-86
2023/10/28 09:49:40;;;;;;;;;;;;;;;;;;6285647;28;19909;-86
2023/10/28 09:52:40;;;;;;;;;;;;;;;;;;6288433;28;20027;-87
2023/10/28 09:55:40;;;;;;;;;;;;;;;;;;6294743;28;19924;-86
2023/10/28 09:58:42;;;;;;;;;;;;;;;;;;6284445;28;20410;-86
2023/10/28 10:01:43;;;;;;;;;;;;;;;;;;6283512;28;19909;-86
2023/10/28 10:04:43;;;;;;;;;;;;;;;;;;6278065;28;20651;-86
2023/10/28 10:07:43;;;;;;;;;;;;;;;;;;6282543;28;19913;-88
2023/10/28 10:10:44;;;;;;;;;;;;;;;;;;6293175;28;19916;-86
2023/10/28 10:13:44;;;;;;;;;;;;;;;;;;6287131;28;19913;-86
2023/10/28 10:16:44;;;;;;;;;;;;;;;;;;6293547;28;19924;-87
2023/10/28 10:19:44;;;;;;;;;;;;;;;;;;6284627;28;19999;-87
2023/10/28 10:22:45;;;;;;;;;;;;;;;;;;6281450;28;20270;-86
2023/10/28 10:25:45;;;;;;;;;;;;;;;;;;6268079;28;19924;-87
2023/10/28 10:28:46;;;;;;;;;;;;;;;;;;6273653;28;20002;-87
2023/10/28 10:31:46;;;;;;;;;;;;;;;;;;6286815;28;19966;-85
2023/10/28 10:34:46;;;;;;;;;;;;;;;;;;6299138;28;19913;-85
2023/10/28 10:37:47;;;;;;;;;;;;;;;;;;6284784;28;20317;-86
2023/10/28 10:40:47;;;;;;;;;;;;;;;;;;6283814;28;19923;-85
2023/10/28 10:43:47;;;;;;;;;;;;;;;;;;6280598;28;20017;-86
2023/10/28 10:46:47;;;;;;;;;;;;;;;;;;6288223;28;20302;-85
2023/10/28 10:49:49;;;;;;;;;;;;;;;;;;6291947;28;19959;-85
2023/10/28 10:52:49;;;;;;;;;;;;;;;;;;6280408;28;19920;-85
2023/10/28 10:55:49;;;;;;;;;;;;;;;;;;6273262;28;19929;-77
2023/10/28 10:58:50;;;;;;;;;;;;;;;;;;6289433;28;19916;-86
2023/10/28 11:01:50;;;;;;;;;;;;;;;;;;6294517;28;19912;-86
2023/10/28 11:04:50;;;;;;;;;;;;;;;;;;6287456;28;19919;-85
2023/10/28 11:07:50;;;;;;;;;;;;;;;;;;6286854;28;19937;-77
2023/10/28 11:10:50;;;;;;;;;;;;;;;;;;6280074;28;19948;-76
2023/10/28 11:13:51;;;;;;;;;;;;;;;;;;6286198;28;20015;-77
2023/10/28 11:16:51;;;;;;;;;;;;;;;;;;6276309;28;19971;-86
2023/10/28 11:19:51;;;;;;;;;;;;;;;;;;6292972;28;19913;-87
2023/10/28 11:22:52;;;;;;;;;;;;;;;;;;6291887;28;19908;-87
2023/10/28 11:25:52;;;;;;;;;;;;;;;;;;6308449;28;20286;-78
2023/10/28 11:28:53;;;;;;;;;;;;;;;;;;6284971;28;19956;-77
2023/10/28 11:31:53;;;;;;;;;;;;;;;;;;6271511;28;20379;-77
2023/10/28 11:34:54;;;;;;;;;;;;;;;;;;6283313;28;19920;-77
2023/10/28 11:37:54;;;;;;;;;;;;;;;;;;6280658;28;19931;-77
2023/10/28 11:40:54;;;;;;;;;;;;;;;;;;6276339;28;19920;-77
2023/10/28 11:43:54;;;;;;;;;;;;;;;;;;6291507;28;19990;-77
2023/10/28 11:46:54;;;;;;;;;;;;;;;;;;6284603;28;19964;-77
2023/10/28 11:49:57;;;;;;;;;;;;;;;;;;6286425;28;20404;-77
2023/10/28 11:52:57;;;;;;;;;;;;;;;;;;6280445;28;19913;-77
2023/10/28 11:55:57;;;;;;;;;;;;;;;;;;6286272;28;19928;-78
2023/10/28 11:58:58;;;;;;;;;;;;;;;;;;6286553;28;19908;-77
2023/10/28 12:01:58;;;;;;;;;;;;;;;;;;6292198;28;19909;-78
2023/10/28 12:04:58;;;;;;;;;;;;;;;;;;6296030;28;20294;-78
2023/10/28 12:07:59;;;;;;;;;;;;;;;;;;6293461;28;19995;-78
2023/10/28 12:10:59;;;;;;;;;;;;;;;;;;6292891;28;20142;-78
2023/10/28 12:13:59;;;;;;;;;;;;;;;;;;6291539;28;19912;-78
2023/10/28 12:16:59;;;;;;;;;;;;;;;;;;6281945;28;20271;-78
2023/10/28 12:19:59;;;;;;;;;;;;;;;;;;6281376;28;19913;-78
2023/10/28 12:22:59;;;;;;;;;;;;;;;;;;6290038;28;19919;-78
2023/10/28 12:25:59;;;;;;;;;;;;;;;;;;6290405;28;20442;-78
2023/10/28 12:29:00;;;;;;;;;;;;;;;;;;6287706;28;20102;-77
2023/10/28 12:32:00;;;;;;;;;;;;;;;;;;6294782;28;19921;-77
2023/10/28 12:35:00;;;;;;;;;;;;;;;;;;6289988;28;19920;-77
2023/10/28 12:38:00;;;;;;;;;;;;;;;;;;6281605;28;19925;-87
2023/10/28 12:41:00;;;;;;;;;;;;;;;;;;6278384;28;19924;-87
2023/10/28 12:44:00;;;;;;;;;;;;;;;;;;6297563;28;20322;-86
2023/10/28 12:47:00;;;;;;;;;;;;;;;;;;6279909;28;19912;-86
2023/10/28 12:50:03;;;;;;;;;;;;;;;;;;6286495;28;19970;-86
2023/10/28 12:53:03;;;;;;;;;;;;;;;;;;6274732;28;20298;-88
2023/10/28 12:56:04;;;;;;;;;;;;;;;;;;6290647;28;19917;-87
2023/10/28 12:59:04;;;;;;;;;;;;;;;;;;6299739;28;19912;-87
2023/10/28 13:02:04;;;;;;;;;;;;;;;;;;6279145;28;20340;-87
2023/10/28 13:05:05;;;;;;;;;;;;;;;;;;6285308;28;19919;-87
2023/10/28 13:08:06;;;;;;;;;;;;;;;;;;6293195;28;20286;-86
2023/10/28 13:11:06;;;;;;;;;;;;;;;;;;6291603;28;19955;-87
2023/10/28 13:14:06;;;;;;;;;;;;;;;;;;6296427;28;19923;-87
2023/10/28 13:17:06;;;;;;;;;;;;;;;;;;6280998;28;19916;-86
2023/10/28 13:20:09;;;;;;;;;;;;;;;;;;6272216;28;19963;-86
2023/10/28 13:23:10;;;;;;;;;;;;;;;;;;6284217;28;20026;-86
2023/10/28 13:26:10;;;;;;;;;;;;;;;;;;6284198;28;20403;-87
2023/10/28 13:29:11;;;;;;;;;;;;;;;;;;6284477;28;19912;-87
2023/10/28 13:32:11;;;;;;;;;;;;;;;;;;6288764;28;19916;-88
2023/10/28 13:35:11;;;;;;;;;;;;;;;;;;6274341;28;20302;-88
2023/10/28 13:38:11;;;;;;;;;;;;;;;;;;6285682;28;19947;-88
2023/10/28 13:41:12;;;;;;;;;;;;;;;;;;6280326;28;19999;-87
2023/10/28 13:44:12;;;;;;;;;;;;;;;;;;6276926;28;19923;-88
2023/10/28 13:47:12;;;;;;;;;;;;;;;;;;6297405;28;19920;-87
2023/10/28 13:50:12;;;;;;;;;;;;;;;;;;6287500;28;19917;-87
2023/10/28 13:53:12;;;;;;;;;;;;;;;;;;6292234;28;19969;-87
2023/10/28 13:56:13;;;;;;;;;;;;;;;;;;6270229;28;19917;-87
2023/10/28 13:59:13;;;;;;;;;;;;;;;;;;6293389;28;19916;-84
2023/10/28 14:02:13;;;;;;;;;;;;;;;;;;6284210;28;19957;-82
2023/10/28 14:05:13;;;;;;;;;;;;;;;;;;6273433;28;19963;-82
2023/10/28 14:08:15;;;;;;;;;;;;;;;;;;6280155;28;20015;-82
2023/10/28 14:11:15;;;;;;;;;;;;;;;;;;6279542;28;19924;-79
2023/10/28 14:14:15;;;;;;;;;;;;;;;;;;6275444;28;19912;-81
2023/10/28 14:17:15;;;;;;;;;;;;;;;;;;6273572;28;20337;-81
2023/10/28 14:20:15;;;;;;;;;;;;;;;;;;6291390;28;19972;-81
2023/10/28 14:23:16;;;;;;;;;;;;;;;;;;6270793;28;19913;-81
2023/10/28 14:26:16;;;;;;;;;;;;;;;;;;6276469;28;20288;-82
2023/10/28 14:29:16;;;;;;;;;;;;;;;;;;6269817;28;19917;-82
2023/10/28 14:32:16;;;;;;;;;;;;;;;;;;6273278;28;19916;-83
2023/10/28 14:35:16;;;;;;;;;;;;;;;;;;6288831;28;19913;-83
2023/10/28 14:38:16;;;;;;;;;;;;;;;;;;6286911;28;19947;-84
2023/10/28 14:41:16;;;;;;;;;;;;;;;;;;6292548;28;19920;-83
2023/10/28 14:44:16;;;;;;;;;;;;;;;;;;6275488;28;20286;-82
2023/10/28 14:47:17;;;;;;;;;;;;;;;;;;6297213;28;19958;-83
2023/10/28 14:50:17;;;;;;;;;;;;;;;;;;6294809;28;19924;-84
2023/10/28 14:53:17;;;;;;;;;;;;;;;;;;6286617;28;19971;-84
2023/10/28 14:56:17;;;;;;;;;;;;;;;;;;6282604;28;20386;-78
2023/10/28 14:59:17;;;;;;;;;;;;;;;;;;6287440;28;19919;-76
2023/10/28 15:02:17;;;;;;;;;;;;;;;;;;6288556;28;19912;-77
2023/10/28 15:05:17;;;;;;;;;;;;;;;;;;6278100;28;19975;-77
2023/10/28 15:08:18;;;;;;;;;;;;;;;;;;6291626;28;19919;-83
2023/10/28 15:11:18;;;;;;;;;;;;;;;;;;6292115;28;20254;-85
2023/10/28 15:14:19;;;;;;;;;;;;;;;;;;6304056;28;19980;-84
2023/10/28 15:17:19;;;;;;;;;;;;;;;;;;6310569;28;19904;-84
2023/10/28 15:20:19;;;;;;;;;;;;;;;;;;6310672;28;19916;-84
2023/10/28 15:23:20;;;;;;;;;;;;;;;;;;6305444;28;19939;-85
2023/10/28 15:26:20;;;;;;;;;;;;;;;;;;6299623;28;19935;-84
2023/10/28 15:29:20;;;;;;;;;;;;;;;;;;6302415;28;19932;-85
2023/10/28 15:32:22;;;;;;;;;;;;;;;;;;6295286;28;19909;-85
2023/10/28 15:35:22;;;;;;;;;;;;;;;;;;6296477;28;19909;-84
2023/10/28 15:38:22;;;;;;;;;;;;;;;;;;6310976;28;19913;-85
2023/10/28 15:41:22;;;;;;;;;;;;;;;;;;6316751;28;19972;-85
2023/10/28 15:44:22;;;;;;;;;;;;;;;;;;6297041;28;19915;-84
2023/10/28 15:47:23;;;;;;;;;;;;;;;;;;6314724;28;19958;-84
2023/10/28 15:50:24;;;;;;;;;;;;;;;;;;6333716;28;19930;-86
2023/10/28 15:53:24;;;;;;;;;;;;;;;;;;6318616;28;19919;-84
2023/10/28 15:56:25;;;;;;;;;;;;;;;;;;6324271;28;19913;-86
2023/10/28 15:59:25;;;;;;;;;;;;;;;;;;6305959;28;19903;-85
2023/10/28 16:02:25;;;;;;;;;;;;;;;;;;6337516;28;19893;-85
2023/10/28 16:05:25;;;;;;;;;;;;;;;;;;6319735;28;19897;-85
2023/10/28 16:08:25;;;;;;;;;;;;;;;;;;6338986;28;19913;-85
2023/10/28 16:11:25;;;;;;;;;;;;;;;;;;6329038;28;19934;-84
2023/10/28 16:14:25;;;;;;;;;;;;;;;;;;6310629;28;19912;-85
2023/10/28 16:17:25;;;;;;;;;;;;;;;;;;6294546;28;20404;-78
2023/10/28 16:20:25;;;;;;;;;;;;;;;;;;6284087;28;19995;-78
2023/10/28 16:23:27;;;;;;;;;;;;;;;;;;6275170;28;20275;-79
2023/10/28 16:26:27;;;;;;;;;;;;;;;;;;6292881;28;19935;-85
2023/10/28 16:29:27;;;;;;;;;;;;;;;;;;6313963;28;19920;-85
2023/10/28 16:32:27;;;;;;;;;;;;;;;;;;6317900;28;19901;-86
2023/10/28 16:35:27;;;;;;;;;;;;;;;;;;6304277;28;19913;-87
2023/10/28 16:38:27;;;;;;;;;;;;;;;;;;6308293;28;19931;-86
2023/10/28 16:41:29;;;;;;;;;;;;;;;;;;6336397;28;19923;-87
2023/10/28 16:44:29;;;;;;;;;;;;;;;;;;6307717;28;19913;-86
2023/10/28 16:47:29;;;;;;;;;;;;;;;;;;6322435;28;19892;-86
2023/10/28 16:50:29;;;;;;;;;;;;;;;;;;6316793;28;19913;-86
2023/10/28 16:53:31;;;;;;;;;;;;;;;;;;6303195;28;19924;-86
2023/10/28 16:56:31;;;;;;;;;;;;;;;;;;6307091;28;19985;-86
2023/10/28 16:59:31;;;;;;;;;;;;;;;;;;6314102;28;20011;-86
2023/10/28 17:02:31;;;;;;;;;;;;;;;;;;6308278;28;19939;-86
2023/10/28 17:05:32;;;;;;;;;;;;;;;;;;6317607;28;19918;-86
2023/10/28 17:08:32;;;;;;;;;;;;;;;;;;6311603;28;19919;-86
2023/10/28 17:11:33;;;;;;;;;;;;;;;;;;6314447;28;19917;-86
2023/10/28 17:14:33;;;;;;;;;;;;;;;;;;6305632;28;19928;-85
2023/10/28 17:17:33;;;;;;;;;;;;;;;;;;6314539;28;19908;-86
2023/10/28 17:20:33;;;;;;;;;;;;;;;;;;6306178;28;19956;-86
2023/10/28 17:23:33;;;;;;;;;;;;;;;;;;6307849;28;19936;-86
2023/10/28 17:26:33;;;;;;;;;;;;;;;;;;6323511;28;19908;-86
2023/10/28 17:29:34;;;;;;;;;;;;;;;;;;6316562;28;19920;-86
2023/10/28 17:32:34;;;;;;;;;;;;;;;;;;6308303;28;19948;-85
2023/10/28 17:35:35;;;;;;;;;;;;;;;;;;6308757;28;20011;-86
2023/10/28 17:38:35;;;;;;;;;;;;;;;;;;6313099;28;19999;-88
2023/10/28 17:41:35;;;;;;;;;;;;;;;;;;6318223;28;19977;-86
2023/10/28 17:44:36;;;;;;;;;;;;;;;;;;6320409;28;19899;-86
2023/10/28 17:47:37;;;;;;;;;;;;;;;;;;6296532;28;19917;-86
2023/10/28 17:50:37;;;;;;;;;;;;;;;;;;6303290;28;19939;-85
2023/10/28 17:53:37;;;;;;;;;;;;;;;;;;6302327;28;19909;-86
2023/10/28 17:56:37;;;;;;;;;;;;;;;;;;6300607;28;19916;-85
2023/10/28 17:59:38;;;;;;;;;;;;;;;;;;6305834;28;19931;-86
2023/10/28 18:02:38;;;;;;;;;;;;;;;;;;6308838;28;19912;-86
2023/10/28 18:05:39;;;;;;;;;;;;;;;;;;6306375;28;20035;-86
2023/10/28 18:08:39;;;;;;;;;;;;;;;;;;6301176;28;20377;-86
2023/10/28 18:11:39;;;;;;;;;;;;;;;;;;6288010;28;20023;-86
2023/10/28 18:14:40;;;;;;;;;;;;;;;;;;6304409;28;19920;-86
2023/10/28 18:17:40;;;;;;;;;;;;;;;;;;6301799;28;20379;-87
2023/10/28 18:20:42;;;;;;;;;;;;;;;;;;6286992;28;19917;-86
2023/10/28 18:23:42;;;;;;;;;;;;;;;;;;6303108;28;19919;-87
2023/10/28 18:26:43;;;;;;;;;;;;;;;;;;6306454;28;19913;-87
2023/10/28 18:29:43;;;;;;;;;;;;;;;;;;6302177;28;19913;-87
2023/10/28 18:32:43;;;;;;;;;;;;;;;;;;6294812;28;19913;-87
2023/10/28 18:35:43;;;;;;;;;;;;;;;;;;6297988;28;19917;-86
2023/10/28 18:38:44;;;;;;;;;;;;;;;;;;6302793;28;19969;-87
2023/10/28 18:41:44;;;;;;;;;;;;;;;;;;6302489;28;19939;-86
2023/10/28 18:44:44;;;;;;;;;;;;;;;;;;6304180;28;20430;-85
2023/10/28 18:47:44;;;;;;;;;;;;;;;;;;6295646;28;19916;-79
2023/10/28 18:50:47;;;;;;;;;;;;;;;;;;6272998;28;19939;-78
2023/10/28 18:53:47;;;;;;;;;;;;;;;;;;6277999;28;19913;-78
2023/10/28 18:56:47;;;;;;;;;;;;;;;;;;6264845;28;19920;-79
2023/10/28 18:59:48;;;;;;;;;;;;;;;;;;6284250;28;20279;-78
2023/10/28 19:02:48;;;;;;;;;;;;;;;;;;6274945;28;19912;-78
2023/10/28 19:05:48;;;;;;;;;;;;;;;;;;6273555;28;19917;-78
2023/10/28 19:08:48;;;;;;;;;;;;;;;;;;6271451;28;20449;-78
2023/10/28 19:11:49;;;;;;;;;;;;;;;;;;6275648;28;19920;-78
2023/10/28 19:14:49;;;;;;;;;;;;;;;;;;6289179;28;19955;-78
2023/10/28 19:17:49;;;;;;;;;;;;;;;;;;6286527;28;20288;-78
2023/10/28 19:20:49;;;;;;;;;;;;;;;;;;6279229;28;19981;-78
2023/10/28 19:23:49;;;;;;;;;;;;;;;;;;6280443;28;19988;-78
2023/10/28 19:26:50;;;;;;;;;;;;;;;;;;6285468;28;20306;-79
2023/10/28 19:29:52;;;;;;;;;;;;;;;;;;6287786;28;19919;-79
2023/10/28 19:32:52;;;;;;;;;;;;;;;;;;6285585;28;19912;-79
2023/10/28 19:35:52;;;;;;;;;;;;;;;;;;6268935;28;19920;-79
2023/10/28 19:38:52;;;;;;;;;;;;;;;;;;6281633;28;20342;-79
2023/10/28 19:41:52;;;;;;;;;;;;;;;;;;6276488;28;19948;-79
2023/10/28 19:44:53;;;;;;;;;;;;;;;;;;6285416;28;19928;-79
2023/10/28 19:47:54;;;;;;;;;;;;;;;;;;6290137;28;20298;-79
2023/10/28 19:50:54;;;;;;;;;;;;;;;;;;6291511;28;19924;-79
2023/10/28 19:53:54;;;;;;;;;;;;;;;;;;6292228;28;20231;-79
2023/10/28 19:56:54;;;;;;;;;;;;;;;;;;6290338;28;20306;-86
2023/10/28 19:59:54;;;;;;;;;;;;;;;;;;6318133;28;19952;-87
2023/10/28 20:02:55;;;;;;;;;;;;;;;;;;6312535;28;19952;-87
2023/10/28 20:05:55;;;;;;;;;;;;;;;;;;6313751;28;19955;-87
2023/10/28 20:08:55;;;;;;;;;;;;;;;;;;6315633;28;19955;-86
2023/10/28 20:11:57;;;;;;;;;;;;;;;;;;6314974;28;19991;-86
2023/10/28 20:14:57;;;;;;;;;;;;;;;;;;6315013;28;19909;-86
2023/10/28 20:17:59;;;;;;;;;;;;;;;;;;6303758;28;19939;-86
2023/10/28 20:20:59;;;;;;;;;;;;;;;;;;6308562;28;19912;-87
2023/10/28 20:24:00;;;;;;;;;;;;;;;;;;6288663;28;19967;-87
2023/10/28 20:27:00;;;;;;;;;;;;;;;;;;6312575;28;19913;-87
2023/10/28 20:30:00;;;;;;;;;;;;;;;;;;6304968;28;19921;-87